Portada
METAR-TAF:

METAR-TAF

Aeroports :

Illes Wake, Estats Units d'Amèrica

latitud: 19-17N, longitud: 166-39E, altitud: 4 m

METAR: manca

Hora: 11:30 (23:30 UTC)

Pronòstic

L'informe es va fer fa 1 hora i 30 minuts, a les 22:00 UTC
Pronòstic vàlid del 28 a les 22 UTC al 30 a les 04 UTC
Vent 20 kt del Est/Nord-Est
Visibilitat: 2916 m
Núvols disperses a una alçada de 2500 ft

TAF: PWAK 282200Z 2822/3004 09020KT 9999 SCT025 QNH2997INS WND 07020KT AFT 2916 TX30/2906Z TN26/2920Z FOR MIL USE ONLY

Observacions i pronòstics meteorològics de més de 4000 aeroports (METAR i TAF).

Les estacions disponibles són els punts grocs i vermells al mapa.

Posi el ratolí al punt desitjat per veure el nom de l'estació.

Feu clic per veure les observacions i els pronòstics meteorològics.

Per canviar el mapa: feu clic els botons verds amb una creu de color negre per apropar; al botó verd amb un guió per allunyar la imatge; o en les fletxes verdes per a mapes adjacents.


METAR-TAF: